Strona główna
METAR-TAF:

METAR-TAF

Lotnisko :

Port lotniczy Kedougou

Kédougou, Senegal

Szerokość geograficzna: 12-34N, Długość geograficzna: 012-13W, wysokość: 178 m

Aktualna obserwacja pogody

Raport powstał 58 minut temu, godzina 17:00 UTC
Wiatr 6 kt od zachód
Temperatura 33°C
Wilgotność 67%
Ciśnienie 1008 hPa
Widzialność 10 km lub więcej
Rozproszone chmury na wysokości 1500 ft

METAR: GOTK 201700Z 28006KT 9999 SCT015 33/26 Q1008

czas: 17:58 (17:58 UTC)


TAF: brakujący

Obserwacja i prognoza pogody dla ponad 4000 lotnisk (raport METAR i TAF).

Dostępne stacje oznaczono żółtymi i czerwonymi punktami na mapie.

Najedź kursorem aby zobaczyć nazwę stacji.

Kliknij aby zobaczyć obserwacje i prognozy pogody.

Aby zmienić mapę: kliknij na zielony przycisk z czarnym krzyżykiem, aby powiększyć; na zielony przycisk z myślnikiem, aby pomniejszyć; na zielone strzałki, aby przejść do map sąsiednich.


METAR-TAF: